createdAt,value
2018-11-13T00:00:58.436Z,14.48
2018-11-13T00:02:51.408Z,14.48
2018-11-13T00:03:51.465Z,14.48
2018-11-13T00:05:44.451Z,14.48
2018-11-13T00:06:44.501Z,14.48
2018-11-13T00:08:37.494Z,14.48
2018-11-13T00:09:37.547Z,14.39
2018-11-13T00:11:30.652Z,14.48
2018-11-13T00:12:30.586Z,14.50
2018-11-13T00:14:23.570Z,14.29
2018-11-13T00:15:23.622Z,14.29
2018-11-13T00:17:16.602Z,14.48
2018-11-13T00:18:16.660Z,14.39
2018-11-13T00:20:09.652Z,14.58
2018-11-13T00:21:09.698Z,14.48
2018-11-13T00:23:02.690Z,14.48
2018-11-13T00:24:02.808Z,14.87
2018-11-13T00:25:55.728Z,14.77
2018-11-13T00:26:55.784Z,14.96
2018-11-13T00:28:48.763Z,14.96
2018-11-13T00:29:48.825Z,14.48
2018-11-13T00:31:41.814Z,14.68
2018-11-13T00:32:41.861Z,14.39
2018-11-13T00:34:34.851Z,14.68
2018-11-13T00:35:34.899Z,14.48
2018-11-13T00:37:27.884Z,14.58
2018-11-13T00:38:27.940Z,14.48
2018-11-13T00:40:20.925Z,14.48
2018-11-13T00:41:20.978Z,14.29
2018-11-13T00:43:13.958Z,14.58
2018-11-13T00:44:14.017Z,14.58
2018-11-13T00:46:07.077Z,14.39
2018-11-13T00:47:07.052Z,14.48
2018-11-13T00:49:00.099Z,14.39
2018-11-13T00:50:00.092Z,14.48
2018-11-13T00:51:53.076Z,14.29
2018-11-13T00:52:53.132Z,14.29
2018-11-13T00:54:46.170Z,13.82
2018-11-13T00:55:46.167Z,14.01
2018-11-13T00:57:39.153Z,13.92
2018-11-13T00:58:39.212Z,13.82
2018-11-13T01:00:32.204Z,14.11
2018-11-13T01:01:32.256Z,13.82
2018-11-13T01:03:25.232Z,13.72
2018-11-13T01:04:25.292Z,13.72
2018-11-13T01:06:18.275Z,14.11
2018-11-13T01:07:18.332Z,13.82
2018-11-13T01:09:11.309Z,14.39
2018-11-13T01:10:11.370Z,14.48
2018-11-13T01:12:04.352Z,14.39
2018-11-13T01:13:04.404Z,14.29
2018-11-13T01:14:57.412Z,14.01
2018-11-13T01:15:57.452Z,13.72
2018-11-13T01:17:50.430Z,14.11
2018-11-13T01:18:50.489Z,13.72
2018-11-13T01:20:43.484Z,13.44
2018-11-13T01:21:43.526Z,13.63
2018-11-13T01:23:36.506Z,13.63
2018-11-13T01:24:36.565Z,13.44
2018-11-13T01:26:29.556Z,13.53
2018-11-13T01:27:29.606Z,13.24
2018-11-13T01:29:22.588Z,13.53
2018-11-13T01:30:22.644Z,13.44
2018-11-13T01:32:15.637Z,13.44
2018-11-13T01:33:15.682Z,13.82
2018-11-13T01:35:08.669Z,13.63
2018-11-13T01:36:08.722Z,13.53
2018-11-13T01:38:01.710Z,13.53
2018-11-13T01:39:01.762Z,13.62
2018-11-13T01:40:54.754Z,13.71
2018-11-13T01:41:54.806Z,13.90
2018-11-13T01:43:47.785Z,13.63
2018-11-13T01:44:47.843Z,13.90
2018-11-13T01:46:41.358Z,14.01
2018-11-13T01:47:40.883Z,13.90
2018-11-13T01:49:33.926Z,13.71
2018-11-13T01:50:33.913Z,13.71
2018-11-13T01:52:26.908Z,13.43
2018-11-13T01:53:26.956Z,13.43
2018-11-13T01:55:19.986Z,13.81
2018-11-13T01:56:19.993Z,13.90
2018-11-13T01:58:12.978Z,13.92
2018-11-13T01:59:13.030Z,13.90
2018-11-13T02:01:06.015Z,14.00
2018-11-13T02:02:06.069Z,13.71
2018-11-13T02:03:59.055Z,13.90
2018-11-13T02:04:59.117Z,13.81
2018-11-13T02:06:52.106Z,13.90
2018-11-13T02:09:05.100Z,13.71
2018-11-13T02:10:05.155Z,13.90
2018-11-13T02:11:58.141Z,14.00
2018-11-13T02:12:58.192Z,13.90
2018-11-13T02:14:51.175Z,14.00
2018-11-13T02:15:51.232Z,14.00
2018-11-13T02:17:44.223Z,14.19
2018-11-13T02:18:44.270Z,14.29
2018-11-13T02:20:37.257Z,14.39
2018-11-13T02:21:37.317Z,14.39
2018-11-13T02:23:30.303Z,14.39
2018-11-13T02:24:30.353Z,14.48
2018-11-13T02:26:23.339Z,14.58
2018-11-13T02:27:23.535Z,14.86
2018-11-13T02:29:16.372Z,14.95
2018-11-13T02:30:16.435Z,14.95
2018-11-13T02:32:09.417Z,14.76
2018-11-13T02:33:09.470Z,14.95
2018-11-13T02:35:02.451Z,15.14
2018-11-13T02:36:02.524Z,14.95
2018-11-13T02:37:55.509Z,14.95
2018-11-13T02:38:55.544Z,14.76
2018-11-13T02:40:48.526Z,15.14
2018-11-13T02:41:48.579Z,15.05
2018-11-13T02:43:41.574Z,15.43
2018-11-13T02:44:41.623Z,15.14
2018-11-13T02:46:34.687Z,15.43
2018-11-13T02:47:34.664Z,15.62
2018-11-13T02:49:27.657Z,15.43
2018-11-13T02:50:27.700Z,15.43
2018-11-13T02:52:20.683Z,15.43
2018-11-13T02:53:20.737Z,15.24
2018-11-13T02:55:13.713Z,15.53
2018-11-13T02:56:13.777Z,15.53
2018-11-13T02:58:06.763Z,15.43
2018-11-13T02:59:06.810Z,15.62
2018-11-13T03:00:59.789Z,15.81
2018-11-13T03:01:59.848Z,15.81
2018-11-13T03:03:52.833Z,15.91
2018-11-13T03:04:52.883Z,15.91
2018-11-13T03:06:45.873Z,15.91
2018-11-13T03:07:45.921Z,15.53
2018-11-13T03:09:38.904Z,16.29
2018-11-13T03:10:38.961Z,16.38
2018-11-13T03:12:31.957Z,16.67
2018-11-13T03:13:32.032Z,16.48
2018-11-13T03:15:24.977Z,16.86
2018-11-13T03:16:25.036Z,17.14
2018-11-13T03:18:18.531Z,17.33
2018-11-13T03:19:18.580Z,17.81
2018-11-13T03:21:11.566Z,18.29
2018-11-13T03:22:11.623Z,18.38
2018-11-13T03:24:04.610Z,18.67
2018-11-13T03:25:04.661Z,18.77
2018-11-13T03:26:57.646Z,19.62
2018-11-13T03:27:57.696Z,19.43
2018-11-13T03:29:50.675Z,19.81
2018-11-13T03:30:50.791Z,19.91
2018-11-13T03:32:43.722Z,19.43
2018-11-13T03:33:43.770Z,19.34
2018-11-13T03:35:36.746Z,19.24
2018-11-13T03:36:36.806Z,19.24
2018-11-13T03:38:29.796Z,19.15
2018-11-13T03:39:29.847Z,19.62
2018-11-13T03:41:22.835Z,19.43
2018-11-13T03:42:22.880Z,19.62
2018-11-13T03:44:15.867Z,19.13
2018-11-13T03:45:15.913Z,19.72
2018-11-13T03:47:08.900Z,19.62
2018-11-13T03:48:08.952Z,19.15
2018-11-13T03:50:01.931Z,19.62
2018-11-13T03:51:01.992Z,19.34
2018-11-13T03:52:54.987Z,19.43
2018-11-13T03:53:55.029Z,19.91
2018-11-13T03:55:48.013Z,20.00
2018-11-13T03:56:48.071Z,19.81
2018-11-13T03:58:41.062Z,19.81
2018-11-13T03:59:41.108Z,20.20
2018-11-13T04:01:34.088Z,19.91
2018-11-13T04:02:34.425Z,19.91
2018-11-13T04:04:27.132Z,19.91
2018-11-13T04:05:27.186Z,19.81
2018-11-13T04:07:20.173Z,20.20
2018-11-13T04:08:20.216Z,20.48
2018-11-13T04:10:13.206Z,20.57
2018-11-13T04:11:13.267Z,20.39
2018-11-13T04:13:06.240Z,20.57
2018-11-13T04:14:06.290Z,21.05
2018-11-13T04:15:59.276Z,21.34
2018-11-13T04:16:59.321Z,21.05
2018-11-13T04:18:52.825Z,21.53
2018-11-13T04:19:52.876Z,21.62
2018-11-13T04:21:45.852Z,22.10
2018-11-13T04:22:46.882Z,22.48
2018-11-13T04:24:38.897Z,22.19
2018-11-13T04:25:38.948Z,22.48
2018-11-13T04:27:31.936Z,22.67
2018-11-13T04:28:31.984Z,22.58
2018-11-13T04:30:24.969Z,23.53
2018-11-13T04:31:25.021Z,23.72
2018-11-13T04:33:18.025Z,23.72
2018-11-13T04:34:18.058Z,23.72
2018-11-13T04:36:11.035Z,23.63
2018-11-13T04:37:11.094Z,24.10
2018-11-13T04:39:04.085Z,23.72
2018-11-13T04:40:04.139Z,23.91
2018-11-13T04:41:57.110Z,23.91
2018-11-13T04:42:57.168Z,23.63
2018-11-13T04:44:50.161Z,23.63
2018-11-13T04:45:50.207Z,23.53
2018-11-13T04:47:43.193Z,23.24
2018-11-13T04:48:43.244Z,23.63
2018-11-13T04:50:36.225Z,23.34
2018-11-13T04:51:36.295Z,23.53
2018-11-13T04:53:29.780Z,24.01
2018-11-13T04:54:29.826Z,24.10
2018-11-13T04:56:22.819Z,23.63
2018-11-13T04:57:22.865Z,23.63
2018-11-13T04:59:15.848Z,23.63
2018-11-13T05:00:15.903Z,23.53
2018-11-13T05:02:08.881Z,23.43
2018-11-13T05:03:08.945Z,23.63
2018-11-13T05:05:01.931Z,23.34
2018-11-13T05:06:01.973Z,23.53
2018-11-13T05:07:54.968Z,23.53
2018-11-13T05:08:55.031Z,23.53
2018-11-13T05:10:48.004Z,24.10
2018-11-13T05:11:48.063Z,24.01
2018-11-13T05:13:41.051Z,24.58
2018-11-13T05:14:41.302Z,24.77
2018-11-13T05:16:34.078Z,25.45
2018-11-13T05:17:34.138Z,25.15
2018-11-13T05:19:27.127Z,24.87
2018-11-13T05:20:27.173Z,24.88
2018-11-13T05:22:20.156Z,25.64
2018-11-13T05:23:20.297Z,25.83
2018-11-13T05:25:13.198Z,25.64
2018-11-13T05:26:13.248Z,25.83
2018-11-13T05:28:06.238Z,26.01
2018-11-13T05:29:06.286Z,25.73
2018-11-13T05:30:59.265Z,25.92
2018-11-13T05:31:59.323Z,26.10
2018-11-13T05:33:52.315Z,26.12
2018-11-13T05:34:52.365Z,26.10
2018-11-13T05:36:45.339Z,25.72
2018-11-13T05:37:45.394Z,25.43
2018-11-13T05:39:38.385Z,25.62
2018-11-13T05:40:38.437Z,24.96
2018-11-13T05:42:31.414Z,25.43
2018-11-13T05:43:31.473Z,25.43
2018-11-13T05:45:24.462Z,24.96
2018-11-13T05:46:24.510Z,24.87
2018-11-13T05:48:17.496Z,25.24
2018-11-13T05:49:17.548Z,25.72
2018-11-13T05:51:10.525Z,25.91
2018-11-13T05:52:10.584Z,26.20
2018-11-13T05:54:03.575Z,25.72
2018-11-13T05:55:03.621Z,26.01
2018-11-13T05:56:56.600Z,26.10
2018-11-13T05:57:56.655Z,26.20
2018-11-13T05:59:50.223Z,26.67
2018-11-13T06:00:50.199Z,26.67
2018-11-13T06:02:43.199Z,27.06
2018-11-13T06:03:43.276Z,26.96
2018-11-13T06:05:36.247Z,26.86
2018-11-13T06:06:36.296Z,27.15
2018-11-13T06:08:29.295Z,26.77
2018-11-13T06:09:29.338Z,26.86
2018-11-13T06:11:22.316Z,26.86
2018-11-13T06:12:22.374Z,26.67
2018-11-13T06:14:15.533Z,26.39
2018-11-13T06:15:15.413Z,26.20
2018-11-13T06:17:08.393Z,26.39
2018-11-13T06:18:08.511Z,26.01
2018-11-13T06:20:01.454Z,25.91
2018-11-13T06:21:01.487Z,26.29
2018-11-13T06:22:54.515Z,26.18
2018-11-13T06:23:54.531Z,26.10
2018-11-13T06:25:47.502Z,26.01
2018-11-13T06:26:47.595Z,26.10
2018-11-13T06:28:40.544Z,25.90
2018-11-13T06:29:40.667Z,25.82
2018-11-13T06:31:33.581Z,26.20
2018-11-13T06:32:33.633Z,26.67
2018-11-13T06:34:26.626Z,27.25
2018-11-13T06:35:26.671Z,27.81
2018-11-13T06:37:19.691Z,27.34
2018-11-13T06:38:19.708Z,27.53
2018-11-13T06:40:12.699Z,27.25
2018-11-13T06:41:12.758Z,27.34
2018-11-13T06:43:05.732Z,26.66
2018-11-13T06:44:05.791Z,26.58
2018-11-13T06:45:58.786Z,26.96
2018-11-13T06:46:58.826Z,27.44
2018-11-13T06:48:51.840Z,27.44
2018-11-13T06:49:51.860Z,27.62
2018-11-13T06:51:44.848Z,27.72
2018-11-13T06:52:44.914Z,27.81
2018-11-13T06:54:37.886Z,27.44
2018-11-13T06:55:37.936Z,27.51
2018-11-13T06:57:30.931Z,27.14
2018-11-13T06:58:30.986Z,26.76
2018-11-13T07:00:24.481Z,26.67
2018-11-13T07:01:24.528Z,26.76
2018-11-13T07:03:17.508Z,27.14
2018-11-13T07:04:17.562Z,27.15
2018-11-13T07:06:10.554Z,27.53
2018-11-13T07:07:10.606Z,28.49
2018-11-13T07:09:03.614Z,28.58
2018-11-13T07:10:03.642Z,28.39
2018-11-13T07:11:56.623Z,28.01
2018-11-13T07:12:56.695Z,28.10
2018-11-13T07:14:49.663Z,28.49
2018-11-13T07:15:49.713Z,28.49
2018-11-13T07:17:42.693Z,28.67
2018-11-13T07:18:42.751Z,29.15
2018-11-13T07:20:35.753Z,29.53
2018-11-13T07:21:35.790Z,30.29
2018-11-13T07:23:28.772Z,30.10
2018-11-13T07:24:28.824Z,30.10
2018-11-13T07:26:21.818Z,30.77
2018-11-13T07:27:21.927Z,30.87
2018-11-13T07:29:14.880Z,30.60
2018-11-13T07:30:14.907Z,31.24
2018-11-13T07:32:07.887Z,30.98
2018-11-13T07:33:07.941Z,31.24
2018-11-13T07:35:00.946Z,31.36
2018-11-13T07:36:00.978Z,31.74
2018-11-13T07:37:53.976Z,31.74
2018-11-13T07:38:54.025Z,31.64
2018-11-13T07:40:47.028Z,32.50
2018-11-13T07:41:47.068Z,32.40
2018-11-13T07:43:40.047Z,33.45
2018-11-13T07:44:40.103Z,33.74
2018-11-13T07:46:33.139Z,34.31
2018-11-13T07:47:33.319Z,33.93
2018-11-13T07:49:26.120Z,33.64
2018-11-13T07:50:26.177Z,34.31
2018-11-13T07:52:19.179Z,35.27
2018-11-13T07:53:19.220Z,34.79
2018-11-13T07:55:12.210Z,35.57
2018-11-13T07:56:12.260Z,35.28
2018-11-13T07:58:05.237Z,36.71
2018-11-13T07:59:05.299Z,38.53
2018-11-13T08:00:58.293Z,40.81
2018-11-13T08:01:58.334Z,41.58
2018-11-13T08:03:51.328Z,40.15
2018-11-13T08:04:51.371Z,39.48
2018-11-13T08:06:44.406Z,38.24
2018-11-13T08:07:44.411Z,36.90
2018-11-13T08:09:37.392Z,37.86
2018-11-13T08:10:37.451Z,37.19
2018-11-13T08:12:30.439Z,38.24
2018-11-13T08:13:30.543Z,37.66
2018-11-13T08:15:23.487Z,37.66
2018-11-13T08:16:23.548Z,37.86
2018-11-13T08:18:16.569Z,38.24
2018-11-13T08:19:16.625Z,38.53
2018-11-13T08:21:09.614Z,40.44
2018-11-13T08:22:09.697Z,39.67
2018-11-13T08:24:02.656Z,39.95
2018-11-13T08:25:02.694Z,39.86
2018-11-13T08:26:55.741Z,39.76
2018-11-13T08:27:55.737Z,40.34
2018-11-13T08:29:48.706Z,40.44
2018-11-13T08:30:48.758Z,42.34
2018-11-13T08:32:41.759Z,41.86
2018-11-13T08:33:41.803Z,42.63
2018-11-13T08:35:34.790Z,42.53
2018-11-13T08:36:34.844Z,41.58
2018-11-13T08:38:27.819Z,41.79
2018-11-13T08:39:27.878Z,43.01
2018-11-13T08:41:20.869Z,42.93
2018-11-13T08:42:20.918Z,42.15
2018-11-13T08:44:13.955Z,42.91
2018-11-13T08:45:13.956Z,44.06
2018-11-13T08:47:06.946Z,44.92
2018-11-13T08:48:06.993Z,46.06
2018-11-13T08:49:59.973Z,44.92
2018-11-13T08:51:00.032Z,45.01
2018-11-13T08:52:53.023Z,45.03
2018-11-13T08:53:53.071Z,45.79
2018-11-13T08:55:46.056Z,44.73
2018-11-13T08:56:46.111Z,44.27
2018-11-13T08:58:39.095Z,46.47
2018-11-13T08:59:39.220Z,47.30
2018-11-13T09:01:32.136Z,46.73
2018-11-13T09:02:32.207Z,47.20
2018-11-13T09:04:25.171Z,46.25
2018-11-13T09:05:25.232Z,46.34
2018-11-13T09:07:18.229Z,47.68
2018-11-13T09:08:18.281Z,49.02
2018-11-13T09:10:11.262Z,49.62
2018-11-13T09:11:11.323Z,50.09
2018-11-13T09:13:04.311Z,51.14
2018-11-13T09:14:04.364Z,50.85
2018-11-13T09:15:57.359Z,51.81
2018-11-13T09:16:57.413Z,53.33
2018-11-13T09:18:50.415Z,51.90
2018-11-13T09:19:50.448Z,50.85
2018-11-13T09:21:43.440Z,51.04
2018-11-13T09:22:43.498Z,51.33
2018-11-13T09:24:36.469Z,51.23
2018-11-13T09:25:36.526Z,51.14
2018-11-13T09:27:29.518Z,51.43
2018-11-13T09:28:29.598Z,51.33
2018-11-13T09:30:22.745Z,51.81
2018-11-13T09:31:22.626Z,51.52
2018-11-13T09:33:15.604Z,52.12
2018-11-13T09:34:15.656Z,52.79
2018-11-13T09:36:08.649Z,52.31
2018-11-13T09:37:08.696Z,53.65
2018-11-13T09:39:01.687Z,54.99
2018-11-13T09:40:01.738Z,55.08
2018-11-13T09:41:54.716Z,55.08
2018-11-13T09:42:54.773Z,54.60
2018-11-13T09:44:47.869Z,53.55
2018-11-13T09:45:47.886Z,55.27
2018-11-13T09:47:40.859Z,57.21
2018-11-13T09:48:40.901Z,56.54
2018-11-13T09:50:33.900Z,56.92
2018-11-13T09:51:33.898Z,58.07
2018-11-13T09:53:26.942Z,58.45
2018-11-13T09:54:26.938Z,61.51
2018-11-13T09:56:19.975Z,60.64
2018-11-13T09:57:19.977Z,59.50
2018-11-13T09:59:12.957Z,60.27
2018-11-13T10:00:13.122Z,60.64
2018-11-13T10:02:06.361Z,62.84
2018-11-13T10:03:06.871Z,60.36
2018-11-13T10:04:59.637Z,60.55
2018-11-13T10:05:59.162Z,63.42
2018-11-13T10:07:52.088Z,62.46
2018-11-13T10:08:52.146Z,61.51
2018-11-13T10:10:45.154Z,63.89
2018-11-13T10:11:45.181Z,64.09
2018-11-13T10:13:38.178Z,62.94
2018-11-13T10:14:38.228Z,64.85
2018-11-13T10:16:31.220Z,65.80
2018-11-13T10:17:31.300Z,64.09
2018-11-13T10:19:24.256Z,63.32
2018-11-13T10:20:24.315Z,65.42
2018-11-13T10:22:17.304Z,65.80
2018-11-13T10:23:17.358Z,65.04
2018-11-13T10:25:10.342Z,65.93
2018-11-13T10:26:10.428Z,65.84
2018-11-13T10:28:03.398Z,66.89
2018-11-13T10:29:03.441Z,67.94
2018-11-13T10:30:56.424Z,67.88
2018-11-13T10:31:56.482Z,69.60
2018-11-13T10:33:49.469Z,70.07
2018-11-13T10:34:49.522Z,71.13
2018-11-13T10:36:42.518Z,70.17
2018-11-13T10:37:42.565Z,70.84
2018-11-13T10:39:35.560Z,76.42
2018-11-13T10:40:35.737Z,75.85
2018-11-13T10:42:28.602Z,75.56
2018-11-13T10:43:28.667Z,75.66
2018-11-13T10:45:21.644Z,73.23
2018-11-13T10:46:21.701Z,74.66
2018-11-13T10:48:14.696Z,75.14
2018-11-13T10:49:14.841Z,75.43
2018-11-13T10:51:07.734Z,77.38
2018-11-13T10:52:07.794Z,77.00
2018-11-13T10:54:00.779Z,77.86
2018-11-13T10:55:00.833Z,77.09
2018-11-13T10:56:53.824Z,76.00
2018-11-13T10:57:53.878Z,75.91
2018-11-13T10:59:46.861Z,74.19
2018-11-13T11:00:46.920Z,74.63
2018-11-13T11:02:39.928Z,68.80
2018-11-13T11:03:39.965Z,66.70
2018-11-13T11:05:32.948Z,63.23
2018-11-13T11:06:33.007Z,61.89
2018-11-13T11:08:25.998Z,61.41
2018-11-13T11:09:26.049Z,61.32
2018-11-13T11:11:19.045Z,63.35
2018-11-13T11:12:19.092Z,61.89
2018-11-13T11:14:12.078Z,61.32
2018-11-13T11:15:12.133Z,59.78
2018-11-13T11:17:05.119Z,58.93
2018-11-13T11:18:05.198Z,58.70
2018-11-13T11:19:58.161Z,55.40
2018-11-13T11:20:58.229Z,54.22
2018-11-13T11:22:51.259Z,52.40
2018-11-13T11:23:51.268Z,50.69
2018-11-13T11:25:44.255Z,47.44
2018-11-13T11:26:44.314Z,46.68
2018-11-13T11:28:37.303Z,45.92
2018-11-13T11:29:37.355Z,43.43
2018-11-13T11:31:30.341Z,41.14
2018-11-13T11:32:30.399Z,41.98
2018-11-13T11:34:23.389Z,39.78
2018-11-13T11:35:23.439Z,39.40
2018-11-13T11:37:16.422Z,38.26
2018-11-13T11:38:16.480Z,37.88
2018-11-13T11:40:09.475Z,35.59
2018-11-13T11:41:09.522Z,35.30
2018-11-13T11:43:02.514Z,35.39
2018-11-13T11:44:02.563Z,34.34
2018-11-13T11:45:55.545Z,33.58
2018-11-13T11:46:55.605Z,33.11
2018-11-13T11:48:48.601Z,32.73
2018-11-13T11:49:48.658Z,33.20
2018-11-13T11:51:41.625Z,33.68
2018-11-13T11:52:41.685Z,33.39
2018-11-13T11:54:34.673Z,33.29
2018-11-13T11:55:34.726Z,32.53
2018-11-13T11:57:27.729Z,33.49
2018-11-13T11:58:27.775Z,33.11
2018-11-13T12:00:21.260Z,33.20
2018-11-13T12:01:21.315Z,33.39
2018-11-13T12:03:14.318Z,33.58
2018-11-13T12:04:14.364Z,33.39
2018-11-13T12:06:07.344Z,34.44
2018-11-13T12:07:07.412Z,34.44
2018-11-13T12:09:00.391Z,33.78
2018-11-13T12:10:00.444Z,34.25
2018-11-13T12:11:53.423Z,33.87
2018-11-13T12:12:53.483Z,32.53
2018-11-13T12:14:46.473Z,35.03
2018-11-13T12:15:46.520Z,36.25
2018-11-13T12:17:39.522Z,38.18
2018-11-13T12:18:39.573Z,37.90
2018-11-13T12:20:32.543Z,39.32
2018-11-13T12:21:32.601Z,40.47
2018-11-13T12:23:25.587Z,43.43
2018-11-13T12:24:25.640Z,42.48
2018-11-13T12:26:18.633Z,46.61
2018-11-13T12:27:18.691Z,44.31
2018-11-13T12:29:11.679Z,47.85
2018-11-13T12:30:11.732Z,51.09
2018-11-13T12:32:04.711Z,50.81
2018-11-13T12:33:04.770Z,52.91
2018-11-13T12:34:57.770Z,52.24
2018-11-13T12:35:57.814Z,50.24
2018-11-13T12:37:50.795Z,52.91
2018-11-13T12:38:50.851Z,51.29
2018-11-13T12:40:43.933Z,49.95
2018-11-13T12:41:43.897Z,50.33
2018-11-13T12:43:36.884Z,52.05
2018-11-13T12:44:36.942Z,52.81
2018-11-13T12:46:29.940Z,52.91
2018-11-13T12:47:29.978Z,50.71
2018-11-13T12:49:22.997Z,52.43
2018-11-13T12:50:23.018Z,52.91
2018-11-13T12:52:16.003Z,53.58
2018-11-13T12:53:16.067Z,53.49
2018-11-13T12:55:09.143Z,54.44
2018-11-13T12:56:09.164Z,56.06
2018-11-13T12:58:02.093Z,53.86
2018-11-13T12:59:02.149Z,53.00
2018-11-13T13:00:55.654Z,58.64
2018-11-13T13:01:55.708Z,57.59
2018-11-13T13:03:48.691Z,56.82
2018-11-13T13:04:48.746Z,55.49
2018-11-13T13:06:41.730Z,55.30
2018-11-13T13:07:41.845Z,56.63
2018-11-13T13:09:34.819Z,54.91
2018-11-13T13:10:34.843Z,55.20
2018-11-13T13:12:27.838Z,55.20
2018-11-13T13:13:27.882Z,55.87
2018-11-13T13:15:20.877Z,58.36
2018-11-13T13:16:20.928Z,61.25
2018-11-13T13:18:13.909Z,61.03
2018-11-13T13:19:13.970Z,60.55
2018-11-13T13:21:06.974Z,62.27
2018-11-13T13:22:07.067Z,61.60
2018-11-13T13:24:00.016Z,61.16
2018-11-13T13:25:00.076Z,61.72
2018-11-13T13:26:53.052Z,63.64
2018-11-13T13:27:53.110Z,62.97
2018-11-13T13:29:46.101Z,64.88
2018-11-13T13:30:46.151Z,65.93
2018-11-13T13:32:39.138Z,65.26
2018-11-13T13:33:39.196Z,65.93
2018-11-13T13:35:32.184Z,67.65
2018-11-13T13:36:32.241Z,66.79
2018-11-13T13:38:25.248Z,67.65
2018-11-13T13:39:25.278Z,68.32
2018-11-13T13:41:18.278Z,67.94
2018-11-13T13:42:18.332Z,67.94
2018-11-13T13:44:11.332Z,69.05
2018-11-13T13:45:11.378Z,68.23
2018-11-13T13:47:04.361Z,66.76
2018-11-13T13:48:04.419Z,66.00
2018-11-13T13:49:57.405Z,66.28
2018-11-13T13:50:57.467Z,66.56
2018-11-13T13:52:50.439Z,66.19
2018-11-13T13:53:50.571Z,65.90
2018-11-13T13:55:43.500Z,66.19
2018-11-13T13:56:43.541Z,64.94
2018-11-13T13:58:36.535Z,66.76
2018-11-13T13:59:36.649Z,67.62
2018-11-13T14:01:29.573Z,67.33
2018-11-13T14:02:29.625Z,66.28
2018-11-13T14:04:22.617Z,65.23
2018-11-13T14:05:22.665Z,66.76
2018-11-13T14:07:15.649Z,67.24
2018-11-13T14:08:15.708Z,67.71
2018-11-13T14:10:08.698Z,68.57
2018-11-13T14:11:08.751Z,68.38
2018-11-13T14:13:01.735Z,68.57
2018-11-13T14:14:01.790Z,68.19
2018-11-13T14:15:54.780Z,68.29
2018-11-13T14:16:54.831Z,68.57
2018-11-13T14:18:47.813Z,68.76
2018-11-13T14:19:47.871Z,69.34
2018-11-13T14:21:40.874Z,69.53
2018-11-13T14:22:40.939Z,69.53
2018-11-13T14:24:33.959Z,71.15
2018-11-13T14:25:33.974Z,70.39
2018-11-13T14:27:26.952Z,69.91
2018-11-13T14:28:27.015Z,71.34
2018-11-13T14:30:20.002Z,70.87
2018-11-13T14:31:20.054Z,70.01
2018-11-13T14:33:13.043Z,70.96
2018-11-13T14:34:13.096Z,70.20
2018-11-13T14:36:06.109Z,74.02
2018-11-13T14:37:06.137Z,73.73
2018-11-13T14:38:59.115Z,71.53
2018-11-13T14:39:59.179Z,71.82
2018-11-13T14:41:52.168Z,73.07
2018-11-13T14:42:52.225Z,72.97
2018-11-13T14:44:45.222Z,72.11
2018-11-13T14:45:45.266Z,72.97
2018-11-13T14:47:38.262Z,71.53
2018-11-13T14:48:38.327Z,72.01
2018-11-13T14:50:31.306Z,69.91
2018-11-13T14:51:31.361Z,71.34
2018-11-13T14:53:24.451Z,71.59
2018-11-13T14:54:24.413Z,70.87
2018-11-13T14:56:17.913Z,71.34
2018-11-13T14:57:17.963Z,69.91
2018-11-13T14:59:10.947Z,72.20
2018-11-13T15:00:11.003Z,72.49
2018-11-13T15:02:03.991Z,72.11
2018-11-13T15:03:04.046Z,72.17
2018-11-13T15:04:57.541Z,72.17
2018-11-13T15:05:57.593Z,72.64
2018-11-13T15:07:50.584Z,72.74
2018-11-13T15:08:50.635Z,72.36
2018-11-13T15:10:43.629Z,71.98
2018-11-13T15:11:43.682Z,71.12
2018-11-13T15:13:36.670Z,71.59
2018-11-13T15:14:36.724Z,71.41
2018-11-13T15:16:29.710Z,71.69
2018-11-13T15:17:29.780Z,71.41
2018-11-13T15:19:22.744Z,71.78
2018-11-13T15:20:22.802Z,72.55
2018-11-13T15:22:15.850Z,72.36
2018-11-13T15:23:15.850Z,72.26
2018-11-13T15:25:08.846Z,73.41
2018-11-13T15:26:08.904Z,73.69
2018-11-13T15:28:01.883Z,72.74
2018-11-13T15:29:01.943Z,71.98
2018-11-13T15:30:54.984Z,71.78
2018-11-13T15:31:54.987Z,73.32
2018-11-13T15:33:47.967Z,71.12
2018-11-13T15:34:48.026Z,70.83
2018-11-13T15:36:41.040Z,71.41
2018-11-13T15:37:41.067Z,71.02
2018-11-13T15:39:34.052Z,71.78
2018-11-13T15:40:34.109Z,71.50
2018-11-13T15:42:27.097Z,71.02
2018-11-13T15:43:27.154Z,70.64
2018-11-13T15:45:20.237Z,69.87
2018-11-13T15:46:20.197Z,69.97
2018-11-13T15:48:13.179Z,69.27
2018-11-13T15:49:13.235Z,68.79
2018-11-13T15:51:06.227Z,67.74
2018-11-13T15:52:06.310Z,67.65
2018-11-13T15:53:59.275Z,67.36
2018-11-13T15:55:00.297Z,67.55
2018-11-13T15:56:52.300Z,67.07
2018-11-13T15:57:52.352Z,67.27
2018-11-13T15:59:45.336Z,66.60
2018-11-13T16:00:45.420Z,67.17
2018-11-13T16:02:38.385Z,66.98
2018-11-13T16:03:38.456Z,66.41
2018-11-13T16:05:31.434Z,67.27
2018-11-13T16:06:31.550Z,67.36
2018-11-13T16:08:24.453Z,66.50
2018-11-13T16:09:24.513Z,66.60
2018-11-13T16:11:17.503Z,65.55
2018-11-13T16:12:17.594Z,66.50
2018-11-13T16:14:10.531Z,66.12
2018-11-13T16:15:10.686Z,65.23
2018-11-13T16:17:03.578Z,65.26
2018-11-13T16:18:03.632Z,64.47
2018-11-13T16:19:56.618Z,64.09
2018-11-13T16:20:56.746Z,64.09
2018-11-13T16:22:49.668Z,63.70
2018-11-13T16:23:49.716Z,63.51
2018-11-13T16:25:42.714Z,63.23
2018-11-13T16:26:42.760Z,63.51
2018-11-13T16:28:35.766Z,63.70
2018-11-13T16:29:35.833Z,62.75
2018-11-13T16:31:28.880Z,62.46
2018-11-13T16:32:28.848Z,62.37
2018-11-13T16:34:21.849Z,62.65
2018-11-13T16:35:21.957Z,61.41
2018-11-13T16:37:14.871Z,61.22
2018-11-13T16:38:15.123Z,60.84
2018-11-13T16:40:07.910Z,61.32
2018-11-13T16:41:07.974Z,61.22
2018-11-13T16:43:00.959Z,60.84
2018-11-13T16:44:01.000Z,61.04
2018-11-13T16:45:53.983Z,60.94
2018-11-13T16:46:54.059Z,60.65
2018-11-13T16:48:47.032Z,61.60
2018-11-13T16:49:47.090Z,61.60
2018-11-13T16:51:40.066Z,61.89
2018-11-13T16:52:40.117Z,62.27
2018-11-13T16:54:33.098Z,62.56
2018-11-13T16:55:33.157Z,62.08
2018-11-13T16:57:26.148Z,61.51
2018-11-13T16:58:26.229Z,61.80
2018-11-13T17:00:19.199Z,61.99
2018-11-13T17:01:19.356Z,61.41
2018-11-13T17:03:12.219Z,61.10
2018-11-13T17:04:12.271Z,60.91
2018-11-13T17:06:05.359Z,60.52
2018-11-13T17:07:05.424Z,59.57
2018-11-13T17:08:58.331Z,60.24
2018-11-13T17:09:58.351Z,60.65
2018-11-13T17:11:51.370Z,60.55
2018-11-13T17:12:51.389Z,60.33
2018-11-13T17:14:44.367Z,59.86
2018-11-13T17:15:44.424Z,59.28
2018-11-13T17:17:37.422Z,59.67
2018-11-13T17:18:37.465Z,59.28
2018-11-13T17:20:30.502Z,58.52
2018-11-13T17:21:30.502Z,58.33
2018-11-13T17:23:23.517Z,58.62
2018-11-13T17:24:23.540Z,58.14
2018-11-13T17:26:16.552Z,57.57
2018-11-13T17:27:16.584Z,57.76
2018-11-13T17:29:09.574Z,57.19
2018-11-13T17:30:09.622Z,57.28
2018-11-13T17:32:02.612Z,57.48
2018-11-13T17:33:02.662Z,57.67
2018-11-13T17:34:55.638Z,57.48
2018-11-13T17:35:55.697Z,57.57
2018-11-13T17:37:48.693Z,58.52
2018-11-13T17:38:48.736Z,58.04
2018-11-13T17:40:41.712Z,58.62
2018-11-13T17:41:41.768Z,57.86
2018-11-13T17:43:34.757Z,57.48
2018-11-13T17:44:34.810Z,57.57
2018-11-13T17:46:27.786Z,56.52
2018-11-13T17:47:27.844Z,56.90
2018-11-13T17:49:20.857Z,56.81
2018-11-13T17:50:20.885Z,56.43
2018-11-13T17:52:13.867Z,57.86
2018-11-13T17:53:13.922Z,57.95
2018-11-13T17:55:06.900Z,58.24
2018-11-13T17:56:06.955Z,57.95
2018-11-13T17:57:59.959Z,58.43
2018-11-13T17:59:00.010Z,58.55
2018-11-13T18:00:52.990Z,58.07
2018-11-13T18:01:53.045Z,57.60
2018-11-13T18:03:46.042Z,57.60
2018-11-13T18:04:46.090Z,58.17
2018-11-13T18:06:39.067Z,59.41
2018-11-13T18:07:39.203Z,59.70
2018-11-13T18:09:32.115Z,59.12
2018-11-13T18:10:32.166Z,59.03
2018-11-13T18:12:25.152Z,59.00
2018-11-13T18:13:25.205Z,58.65
2018-11-13T18:15:18.188Z,57.67
2018-11-13T18:16:18.262Z,57.48
2018-11-13T18:18:11.234Z,57.19
2018-11-13T18:19:11.286Z,56.52
2018-11-13T18:21:04.267Z,56.04
2018-11-13T18:22:04.467Z,55.19
2018-11-13T18:23:57.317Z,54.71
2018-11-13T18:24:57.364Z,55.28
2018-11-13T18:26:50.344Z,55.09
2018-11-13T18:27:50.433Z,54.80
2018-11-13T18:29:43.387Z,55.09
2018-11-13T18:30:43.444Z,54.61
2018-11-13T18:32:36.441Z,54.14
2018-11-13T18:33:36.481Z,54.24
2018-11-13T18:35:29.458Z,55.00